sensor_id;sensor_type;location;lat;lon;timestamp;temperature;humidity
38333;DHT22;25748;46.670;14.272;2024-01-27T00:01:42;-0.40;65.60
38333;DHT22;25748;46.670;14.272;2024-01-27T00:04:08;-0.40;65.80
38333;DHT22;25748;46.670;14.272;2024-01-27T00:06:34;-0.40;66.20
38333;DHT22;25748;46.670;14.272;2024-01-27T00:08:59;-0.40;66.40
38333;DHT22;25748;46.670;14.272;2024-01-27T00:11:25;-0.40;66.70
38333;DHT22;25748;46.670;14.272;2024-01-27T00:13:52;-0.40;66.60
38333;DHT22;25748;46.670;14.272;2024-01-27T00:16:18;-0.40;66.70
38333;DHT22;25748;46.670;14.272;2024-01-27T00:18:44;-0.40;66.70
38333;DHT22;25748;46.670;14.272;2024-01-27T00:21:09;-0.40;66.60
38333;DHT22;25748;46.670;14.272;2024-01-27T00:23:35;-0.40;66.70
38333;DHT22;25748;46.670;14.272;2024-01-27T00:26:01;-0.40;66.60
38333;DHT22;25748;46.670;14.272;2024-01-27T00:28:27;-0.40;66.80
38333;DHT22;25748;46.670;14.272;2024-01-27T00:30:52;-0.40;67.00
38333;DHT22;25748;46.670;14.272;2024-01-27T00:33:18;-0.40;67.10
38333;DHT22;25748;46.670;14.272;2024-01-27T00:35:46;-0.40;67.00
38333;DHT22;25748;46.670;14.272;2024-01-27T00:38:12;-0.40;67.00
38333;DHT22;25748;46.670;14.272;2024-01-27T00:40:37;-0.40;67.10
38333;DHT22;25748;46.670;14.272;2024-01-27T00:43:03;-0.50;67.20
38333;DHT22;25748;46.670;14.272;2024-01-27T00:45:29;-0.50;67.40
38333;DHT22;25748;46.670;14.272;2024-01-27T00:47:56;-0.50;67.50
38333;DHT22;25748;46.670;14.272;2024-01-27T00:50:22;-0.50;67.50
38333;DHT22;25748;46.670;14.272;2024-01-27T00:52:48;-0.50;67.70
38333;DHT22;25748;46.670;14.272;2024-01-27T00:55:13;-0.60;67.70
38333;DHT22;25748;46.670;14.272;2024-01-27T00:57:39;-0.60;67.50
38333;DHT22;25748;46.670;14.272;2024-01-27T01:00:07;-0.60;67.40
38333;DHT22;25748;46.670;14.272;2024-01-27T01:02:34;-0.70;67.40
38333;DHT22;25748;46.670;14.272;2024-01-27T01:04:59;-0.70;67.30
38333;DHT22;25748;46.670;14.272;2024-01-27T01:07:25;-0.70;67.40
38333;DHT22;25748;46.670;14.272;2024-01-27T01:09:51;-0.70;67.60
38333;DHT22;25748;46.670;14.272;2024-01-27T01:12:16;-0.70;67.80
38333;DHT22;25748;46.670;14.272;2024-01-27T01:14:43;-0.70;68.00
38333;DHT22;25748;46.670;14.272;2024-01-27T01:17:09;-0.80;67.80
38333;DHT22;25748;46.670;14.272;2024-01-27T01:19:37;-0.80;67.80
38333;DHT22;25748;46.670;14.272;2024-01-27T01:22:04;-0.80;67.60
38333;DHT22;25748;46.670;14.272;2024-01-27T01:24:30;-0.80;67.70
38333;DHT22;25748;46.670;14.272;2024-01-27T01:26:55;-0.80;67.80
38333;DHT22;25748;46.670;14.272;2024-01-27T01:29:21;-0.80;67.80
38333;DHT22;25748;46.670;14.272;2024-01-27T01:31:47;-0.80;68.00
38333;DHT22;25748;46.670;14.272;2024-01-27T01:34:13;-0.80;68.10
38333;DHT22;25748;46.670;14.272;2024-01-27T01:36:39;-0.80;68.00
38333;DHT22;25748;46.670;14.272;2024-01-27T01:39:06;-0.80;68.10
38333;DHT22;25748;46.670;14.272;2024-01-27T01:41:31;-0.90;68.50
38333;DHT22;25748;46.670;14.272;2024-01-27T01:43:57;-0.90;68.10
38333;DHT22;25748;46.670;14.272;2024-01-27T01:46:23;-0.90;68.10
38333;DHT22;25748;46.670;14.272;2024-01-27T01:48:51;-0.90;68.30
38333;DHT22;25748;46.670;14.272;2024-01-27T01:51:17;-0.80;68.80
38333;DHT22;25748;46.670;14.272;2024-01-27T01:53:43;-0.80;69.00
38333;DHT22;25748;46.670;14.272;2024-01-27T01:56:10;-0.80;68.90
38333;DHT22;25748;46.670;14.272;2024-01-27T01:58:38;-0.80;68.60
38333;DHT22;25748;46.670;14.272;2024-01-27T02:01:04;-0.80;68.90
38333;DHT22;25748;46.670;14.272;2024-01-27T02:03:30;-0.90;68.60
38333;DHT22;25748;46.670;14.272;2024-01-27T02:05:57;-0.90;68.60
38333;DHT22;25748;46.670;14.272;2024-01-27T02:08:23;-0.90;68.30
38333;DHT22;25748;46.670;14.272;2024-01-27T02:10:48;-1.00;68.00
38333;DHT22;25748;46.670;14.272;2024-01-27T02:13:22;-1.00;68.50
38333;DHT22;25748;46.670;14.272;2024-01-27T02:15:49;-1.00;68.30
38333;DHT22;25748;46.670;14.272;2024-01-27T02:18:16;-1.00;68.50
38333;DHT22;25748;46.670;14.272;2024-01-27T02:20:42;-1.00;68.60
38333;DHT22;25748;46.670;14.272;2024-01-27T02:23:08;-1.00;68.60
38333;DHT22;25748;46.670;14.272;2024-01-27T02:25:34;-1.10;68.50
38333;DHT22;25748;46.670;14.272;2024-01-27T02:28:01;-1.10;68.60
38333;DHT22;25748;46.670;14.272;2024-01-27T02:30:28;-1.10;68.40
38333;DHT22;25748;46.670;14.272;2024-01-27T02:32:56;-1.10;68.50
38333;DHT22;25748;46.670;14.272;2024-01-27T02:35:22;-1.10;68.90
38333;DHT22;25748;46.670;14.272;2024-01-27T02:37:47;-1.10;69.20
38333;DHT22;25748;46.670;14.272;2024-01-27T02:40:13;-1.10;69.10
38333;DHT22;25748;46.670;14.272;2024-01-27T02:42:39;-1.10;69.30
38333;DHT22;25748;46.670;14.272;2024-01-27T02:45:08;-1.00;69.30
38333;DHT22;25748;46.670;14.272;2024-01-27T02:47:34;-1.10;69.10
38333;DHT22;25748;46.670;14.272;2024-01-27T02:49:59;-1.10;68.90
38333;DHT22;25748;46.670;14.272;2024-01-27T02:52:25;-1.10;68.70
38333;DHT22;25748;46.670;14.272;2024-01-27T02:54:51;-1.20;68.50
38333;DHT22;25748;46.670;14.272;2024-01-27T02:57:17;-1.20;68.40
38333;DHT22;25748;46.670;14.272;2024-01-27T02:59:45;-1.20;68.40
38333;DHT22;25748;46.670;14.272;2024-01-27T03:02:11;-1.30;68.30
38333;DHT22;25748;46.670;14.272;2024-01-27T03:04:36;-1.30;68.40
38333;DHT22;25748;46.670;14.272;2024-01-27T03:07:02;-1.30;68.20
38333;DHT22;25748;46.670;14.272;2024-01-27T03:09:28;-1.40;68.20
38333;DHT22;25748;46.670;14.272;2024-01-27T03:11:53;-1.40;67.80
38333;DHT22;25748;46.670;14.272;2024-01-27T03:14:19;-1.50;68.00
38333;DHT22;25748;46.670;14.272;2024-01-27T03:16:45;-1.50;67.90
38333;DHT22;25748;46.670;14.272;2024-01-27T03:19:10;-1.50;67.90
38333;DHT22;25748;46.670;14.272;2024-01-27T03:21:36;-1.60;67.50
38333;DHT22;25748;46.670;14.272;2024-01-27T03:24:02;-1.60;67.80
38333;DHT22;25748;46.670;14.272;2024-01-27T03:26:28;-1.70;67.90
38333;DHT22;25748;46.670;14.272;2024-01-27T03:28:53;-1.70;67.70
38333;DHT22;25748;46.670;14.272;2024-01-27T03:31:19;-1.70;67.80
38333;DHT22;25748;46.670;14.272;2024-01-27T03:33:45;-1.70;68.10
38333;DHT22;25748;46.670;14.272;2024-01-27T03:36:12;-1.70;68.30
38333;DHT22;25748;46.670;14.272;2024-01-27T03:38:38;-1.60;68.60
38333;DHT22;25748;46.670;14.272;2024-01-27T03:41:04;-1.60;68.70
38333;DHT22;25748;46.670;14.272;2024-01-27T03:43:30;-1.70;68.40
38333;DHT22;25748;46.670;14.272;2024-01-27T03:45:57;-1.70;68.60
38333;DHT22;25748;46.670;14.272;2024-01-27T03:48:24;-1.70;68.70
38333;DHT22;25748;46.670;14.272;2024-01-27T03:50:49;-1.70;68.80
38333;DHT22;25748;46.670;14.272;2024-01-27T03:53:15;-1.70;68.90
38333;DHT22;25748;46.670;14.272;2024-01-27T03:55:41;-1.70;68.80
38333;DHT22;25748;46.670;14.272;2024-01-27T03:58:06;-1.70;69.20
38333;DHT22;25748;46.670;14.272;2024-01-27T04:00:32;-1.60;69.50
38333;DHT22;25748;46.670;14.272;2024-01-27T04:03:02;-1.60;69.50
38333;DHT22;25748;46.670;14.272;2024-01-27T04:05:29;-1.60;69.40
38333;DHT22;25748;46.670;14.272;2024-01-27T04:07:54;-1.60;69.40
38333;DHT22;25748;46.670;14.272;2024-01-27T04:10:21;-1.60;69.40
38333;DHT22;25748;46.670;14.272;2024-01-27T04:12:46;-1.60;69.40
38333;DHT22;25748;46.670;14.272;2024-01-27T04:15:12;-1.60;69.40
38333;DHT22;25748;46.670;14.272;2024-01-27T04:17:39;-1.60;69.40
38333;DHT22;25748;46.670;14.272;2024-01-27T04:20:09;-1.60;69.30
38333;DHT22;25748;46.670;14.272;2024-01-27T04:22:35;-1.60;69.40
38333;DHT22;25748;46.670;14.272;2024-01-27T04:25:01;-1.60;69.30
38333;DHT22;25748;46.670;14.272;2024-01-27T04:27:27;-1.60;69.00
38333;DHT22;25748;46.670;14.272;2024-01-27T04:29:53;-1.60;69.00
38333;DHT22;25748;46.670;14.272;2024-01-27T04:32:19;-1.60;69.10
38333;DHT22;25748;46.670;14.272;2024-01-27T04:34:47;-1.70;69.00
38333;DHT22;25748;46.670;14.272;2024-01-27T04:37:12;-1.70;68.80
38333;DHT22;25748;46.670;14.272;2024-01-27T04:39:38;-1.70;68.80
38333;DHT22;25748;46.670;14.272;2024-01-27T04:42:05;-1.70;68.80
38333;DHT22;25748;46.670;14.272;2024-01-27T04:44:32;-1.70;68.80
38333;DHT22;25748;46.670;14.272;2024-01-27T04:46:58;-1.70;68.80
38333;DHT22;25748;46.670;14.272;2024-01-27T04:49:23;-1.70;68.80
38333;DHT22;25748;46.670;14.272;2024-01-27T04:51:49;-1.60;69.50
38333;DHT22;25748;46.670;14.272;2024-01-27T04:54:15;-1.60;69.60
38333;DHT22;25748;46.670;14.272;2024-01-27T04:56:41;-1.60;69.60
38333;DHT22;25748;46.670;14.272;2024-01-27T04:59:06;-1.50;69.80
38333;DHT22;25748;46.670;14.272;2024-01-27T05:01:32;-1.50;69.60
38333;DHT22;25748;46.670;14.272;2024-01-27T05:03:58;-1.50;69.70
38333;DHT22;25748;46.670;14.272;2024-01-27T05:06:24;-1.50;69.70
38333;DHT22;25748;46.670;14.272;2024-01-27T05:08:50;-1.50;69.60
38333;DHT22;25748;46.670;14.272;2024-01-27T05:11:24;-1.50;69.60
38333;DHT22;25748;46.670;14.272;2024-01-27T05:13:50;-1.50;69.40
38333;DHT22;25748;46.670;14.272;2024-01-27T05:16:16;-1.50;69.40
38333;DHT22;25748;46.670;14.272;2024-01-27T05:18:41;-1.60;69.20
38333;DHT22;25748;46.670;14.272;2024-01-27T05:21:07;-1.60;68.90
38333;DHT22;25748;46.670;14.272;2024-01-27T05:23:33;-1.60;68.90
38333;DHT22;25748;46.670;14.272;2024-01-27T05:25:58;-1.60;68.80
38333;DHT22;25748;46.670;14.272;2024-01-27T05:28:25;-1.70;68.70
38333;DHT22;25748;46.670;14.272;2024-01-27T05:30:50;-1.70;68.40
38333;DHT22;25748;46.670;14.272;2024-01-27T05:33:16;-1.70;68.60
38333;DHT22;25748;46.670;14.272;2024-01-27T05:35:42;-1.70;68.50
38333;DHT22;25748;46.670;14.272;2024-01-27T05:38:08;-1.80;68.30
38333;DHT22;25748;46.670;14.272;2024-01-27T05:40:33;-1.80;68.40
38333;DHT22;25748;46.670;14.272;2024-01-27T05:42:59;-1.80;68.40
38333;DHT22;25748;46.670;14.272;2024-01-27T05:45:25;-1.80;68.30
38333;DHT22;25748;46.670;14.272;2024-01-27T05:47:52;-1.80;68.50
38333;DHT22;25748;46.670;14.272;2024-01-27T05:50:17;-1.90;68.30
38333;DHT22;25748;46.670;14.272;2024-01-27T05:52:43;-1.90;68.40
38333;DHT22;25748;46.670;14.272;2024-01-27T05:55:09;-1.90;68.10
38333;DHT22;25748;46.670;14.272;2024-01-27T05:57:35;-2.00;68.20
38333;DHT22;25748;46.670;14.272;2024-01-27T06:00:01;-2.00;68.20
38333;DHT22;25748;46.670;14.272;2024-01-27T06:02:27;-2.00;68.40
38333;DHT22;25748;46.670;14.272;2024-01-27T06:04:52;-2.00;68.50
38333;DHT22;25748;46.670;14.272;2024-01-27T06:07:18;-2.00;68.60
38333;DHT22;25748;46.670;14.272;2024-01-27T06:09:43;-2.00;68.60
38333;DHT22;25748;46.670;14.272;2024-01-27T06:12:09;-2.00;68.60
38333;DHT22;25748;46.670;14.272;2024-01-27T06:14:35;-2.00;68.50
38333;DHT22;25748;46.670;14.272;2024-01-27T06:17:04;-2.10;68.40
38333;DHT22;25748;46.670;14.272;2024-01-27T06:19:29;-2.10;68.10
38333;DHT22;25748;46.670;14.272;2024-01-27T06:21:55;-2.10;68.20
38333;DHT22;25748;46.670;14.272;2024-01-27T06:24:21;-2.20;68.30
38333;DHT22;25748;46.670;14.272;2024-01-27T06:26:46;-2.20;68.20
38333;DHT22;25748;46.670;14.272;2024-01-27T06:29:12;-2.20;68.40
38333;DHT22;25748;46.670;14.272;2024-01-27T06:31:38;-2.20;67.80
38333;DHT22;25748;46.670;14.272;2024-01-27T06:34:03;-2.30;67.90
38333;DHT22;25748;46.670;14.272;2024-01-27T06:36:29;-2.30;68.00
38333;DHT22;25748;46.670;14.272;2024-01-27T06:38:55;-2.30;68.00
38333;DHT22;25748;46.670;14.272;2024-01-27T06:41:21;-2.30;68.20
38333;DHT22;25748;46.670;14.272;2024-01-27T06:43:47;-2.30;68.40
38333;DHT22;25748;46.670;14.272;2024-01-27T06:46:12;-2.30;68.70
38333;DHT22;25748;46.670;14.272;2024-01-27T06:48:38;-2.20;69.20
38333;DHT22;25748;46.670;14.272;2024-01-27T06:51:04;-2.10;69.60
38333;DHT22;25748;46.670;14.272;2024-01-27T06:53:30;-2.10;69.80
38333;DHT22;25748;46.670;14.272;2024-01-27T06:55:56;-2.00;70.00
38333;DHT22;25748;46.670;14.272;2024-01-27T06:58:21;-2.00;70.10
38333;DHT22;25748;46.670;14.272;2024-01-27T07:00:47;-1.90;70.10
38333;DHT22;25748;46.670;14.272;2024-01-27T07:03:13;-1.90;69.80
38333;DHT22;25748;46.670;14.272;2024-01-27T07:05:38;-1.90;69.80
38333;DHT22;25748;46.670;14.272;2024-01-27T07:08:08;-1.80;69.90
38333;DHT22;25748;46.670;14.272;2024-01-27T07:10:35;-1.80;69.80
38333;DHT22;25748;46.670;14.272;2024-01-27T07:13:01;-1.80;69.70
38333;DHT22;25748;46.670;14.272;2024-01-27T07:15:26;-1.70;69.70
38333;DHT22;25748;46.670;14.272;2024-01-27T07:17:53;-1.70;69.80
38333;DHT22;25748;46.670;14.272;2024-01-27T07:20:19;-1.70;69.80
38333;DHT22;25748;46.670;14.272;2024-01-27T07:22:47;-1.70;69.90
38333;DHT22;25748;46.670;14.272;2024-01-27T07:25:13;-1.60;70.10
38333;DHT22;25748;46.670;14.272;2024-01-27T07:27:39;-1.60;70.20
38333;DHT22;25748;46.670;14.272;2024-01-27T07:30:05;-1.60;70.10
38333;DHT22;25748;46.670;14.272;2024-01-27T07:32:32;-1.50;70.50
38333;DHT22;25748;46.670;14.272;2024-01-27T07:34:57;-1.40;70.90
38333;DHT22;25748;46.670;14.272;2024-01-27T07:37:23;-1.30;71.20
38333;DHT22;25748;46.670;14.272;2024-01-27T07:39:48;-1.30;71.10
38333;DHT22;25748;46.670;14.272;2024-01-27T07:42:14;-1.20;71.40
38333;DHT22;25748;46.670;14.272;2024-01-27T07:44:41;-1.00;71.60
38333;DHT22;25748;46.670;14.272;2024-01-27T07:47:07;-0.90;71.90
38333;DHT22;25748;46.670;14.272;2024-01-27T07:49:34;-0.80;72.10
38333;DHT22;25748;46.670;14.272;2024-01-27T07:52:00;-0.60;72.40
38333;DHT22;25748;46.670;14.272;2024-01-27T07:54:25;-0.50;72.10
38333;DHT22;25748;46.670;14.272;2024-01-27T07:56:51;-0.40;72.40
38333;DHT22;25748;46.670;14.272;2024-01-27T07:59:17;-0.30;72.70
38333;DHT22;25748;46.670;14.272;2024-01-27T08:01:43;-0.10;72.90
38333;DHT22;25748;46.670;14.272;2024-01-27T08:04:08;0.10;72.80
38333;DHT22;25748;46.670;14.272;2024-01-27T08:06:45;0.20;73.10
38333;DHT22;25748;46.670;14.272;2024-01-27T08:09:10;0.40;73.20
38333;DHT22;25748;46.670;14.272;2024-01-27T08:11:36;0.50;73.30
38333;DHT22;25748;46.670;14.272;2024-01-27T08:14:02;0.70;73.20
38333;DHT22;25748;46.670;14.272;2024-01-27T08:16:28;0.80;73.10
38333;DHT22;25748;46.670;14.272;2024-01-27T08:18:54;1.00;73.10
38333;DHT22;25748;46.670;14.272;2024-01-27T08:21:19;1.10;72.90
38333;DHT22;25748;46.670;14.272;2024-01-27T08:23:45;1.30;72.60
38333;DHT22;25748;46.670;14.272;2024-01-27T08:26:11;1.40;72.40
38333;DHT22;25748;46.670;14.272;2024-01-27T08:28:36;1.50;71.80
38333;DHT22;25748;46.670;14.272;2024-01-27T08:31:02;1.70;71.80
38333;DHT22;25748;46.670;14.272;2024-01-27T08:33:28;1.80;71.90
38333;DHT22;25748;46.670;14.272;2024-01-27T08:35:54;2.00;71.00
38333;DHT22;25748;46.670;14.272;2024-01-27T08:38:20;2.10;70.50
38333;DHT22;25748;46.670;14.272;2024-01-27T08:40:46;2.20;70.60
38333;DHT22;25748;46.670;14.272;2024-01-27T08:43:11;2.40;70.30
38333;DHT22;25748;46.670;14.272;2024-01-27T08:45:40;2.60;70.50
38333;DHT22;25748;46.670;14.272;2024-01-27T08:48:06;2.70;69.60
38333;DHT22;25748;46.670;14.272;2024-01-27T08:50:32;2.90;69.70
38333;DHT22;25748;46.670;14.272;2024-01-27T08:52:58;3.10;69.80
38333;DHT22;25748;46.670;14.272;2024-01-27T08:55:23;3.30;68.80
38333;DHT22;25748;46.670;14.272;2024-01-27T08:57:53;3.40;68.00
38333;DHT22;25748;46.670;14.272;2024-01-27T09:00:19;3.60;67.70
38333;DHT22;25748;46.670;14.272;2024-01-27T09:02:45;3.70;65.70
38333;DHT22;25748;46.670;14.272;2024-01-27T09:05:11;3.80;65.10
38333;DHT22;25748;46.670;14.272;2024-01-27T09:07:37;3.90;65.00
38333;DHT22;25748;46.670;14.272;2024-01-27T09:10:03;4.10;64.50
38333;DHT22;25748;46.670;14.272;2024-01-27T09:12:28;4.20;63.80
38333;DHT22;25748;46.670;14.272;2024-01-27T09:14:54;4.30;63.50
38333;DHT22;25748;46.670;14.272;2024-01-27T09:17:23;4.30;64.00
38333;DHT22;25748;46.670;14.272;2024-01-27T09:20:03;4.50;62.90
38333;DHT22;25748;46.670;14.272;2024-01-27T09:22:29;4.60;62.70
38333;DHT22;25748;46.670;14.272;2024-01-27T09:24:55;4.70;61.60
38333;DHT22;25748;46.670;14.272;2024-01-27T09:27:21;4.80;62.00
38333;DHT22;25748;46.670;14.272;2024-01-27T09:29:47;4.90;62.40
38333;DHT22;25748;46.670;14.272;2024-01-27T09:32:12;5.00;60.90
38333;DHT22;25748;46.670;14.272;2024-01-27T09:34:38;5.10;60.50
38333;DHT22;25748;46.670;14.272;2024-01-27T09:37:05;5.30;60.80
38333;DHT22;25748;46.670;14.272;2024-01-27T09:39:32;5.40;60.80
38333;DHT22;25748;46.670;14.272;2024-01-27T09:42:00;5.50;59.90
38333;DHT22;25748;46.670;14.272;2024-01-27T09:44:31;5.60;59.60
38333;DHT22;25748;46.670;14.272;2024-01-27T09:46:57;5.80;59.10
38333;DHT22;25748;46.670;14.272;2024-01-27T09:49:23;5.90;58.30
38333;DHT22;25748;46.670;14.272;2024-01-27T09:51:50;6.00;58.70
38333;DHT22;25748;46.670;14.272;2024-01-27T09:54:16;6.10;58.20
38333;DHT22;25748;46.670;14.272;2024-01-27T09:56:43;6.20;57.00
38333;DHT22;25748;46.670;14.272;2024-01-27T09:59:11;6.30;57.40
38333;DHT22;25748;46.670;14.272;2024-01-27T10:01:40;6.40;57.40
38333;DHT22;25748;46.670;14.272;2024-01-27T10:04:08;6.50;57.90
38333;DHT22;25748;46.670;14.272;2024-01-27T10:06:34;6.70;57.90
38333;DHT22;25748;46.670;14.272;2024-01-27T10:09:00;6.80;57.00
38333;DHT22;25748;46.670;14.272;2024-01-27T10:11:27;6.90;56.50
38333;DHT22;25748;46.670;14.272;2024-01-27T10:13:54;7.00;56.40
38333;DHT22;25748;46.670;14.272;2024-01-27T10:16:21;7.20;56.40
38333;DHT22;25748;46.670;14.272;2024-01-27T10:18:46;7.30;56.50
38333;DHT22;25748;46.670;14.272;2024-01-27T10:21:13;7.50;56.00
38333;DHT22;25748;46.670;14.272;2024-01-27T10:23:40;7.60;56.10
38333;DHT22;25748;46.670;14.272;2024-01-27T10:26:08;7.70;55.90
38333;DHT22;25748;46.670;14.272;2024-01-27T10:28:34;7.80;55.70
38333;DHT22;25748;46.670;14.272;2024-01-27T10:31:10;8.00;55.70
38333;DHT22;25748;46.670;14.272;2024-01-27T10:33:35;8.10;55.80
38333;DHT22;25748;46.670;14.272;2024-01-27T10:36:01;8.30;55.60
38333;DHT22;25748;46.670;14.272;2024-01-27T10:38:38;8.40;55.20
38333;DHT22;25748;46.670;14.272;2024-01-27T10:41:08;8.60;55.50
38333;DHT22;25748;46.670;14.272;2024-01-27T10:43:36;8.80;55.30
38333;DHT22;25748;46.670;14.272;2024-01-27T10:46:06;8.90;55.50
38333;DHT22;25748;46.670;14.272;2024-01-27T10:48:35;9.10;55.20
38333;DHT22;25748;46.670;14.272;2024-01-27T10:51:09;9.20;53.80
38333;DHT22;25748;46.670;14.272;2024-01-27T10:53:38;9.30;53.50
38333;DHT22;25748;46.670;14.272;2024-01-27T10:56:05;9.40;53.80
38333;DHT22;25748;46.670;14.272;2024-01-27T10:58:35;9.50;53.10
38333;DHT22;25748;46.670;14.272;2024-01-27T11:01:11;9.60;53.40
38333;DHT22;25748;46.670;14.272;2024-01-27T11:03:40;9.70;53.50
38333;DHT22;25748;46.670;14.272;2024-01-27T11:06:09;9.90;52.90
38333;DHT22;25748;46.670;14.272;2024-01-27T11:08:38;10.00;53.00
38333;DHT22;25748;46.670;14.272;2024-01-27T11:11:04;10.20;52.50
38333;DHT22;25748;46.670;14.272;2024-01-27T11:13:32;10.30;52.50
38333;DHT22;25748;46.670;14.272;2024-01-27T11:15:58;10.40;53.00
38333;DHT22;25748;46.670;14.272;2024-01-27T11:18:25;10.50;52.70
38333;DHT22;25748;46.670;14.272;2024-01-27T11:20:54;10.70;51.80
38333;DHT22;25748;46.670;14.272;2024-01-27T11:23:20;10.90;51.50
38333;DHT22;25748;46.670;14.272;2024-01-27T11:25:46;11.00;50.40
38333;DHT22;25748;46.670;14.272;2024-01-27T11:28:13;11.10;50.20
38333;DHT22;25748;46.670;14.272;2024-01-27T11:30:40;11.20;50.40
38333;DHT22;25748;46.670;14.272;2024-01-27T11:33:10;11.30;49.50
38333;DHT22;25748;46.670;14.272;2024-01-27T11:35:36;11.50;49.90
38333;DHT22;25748;46.670;14.272;2024-01-27T11:38:01;11.60;50.40
38333;DHT22;25748;46.670;14.272;2024-01-27T11:40:27;11.70;49.60
38333;DHT22;25748;46.670;14.272;2024-01-27T11:42:55;11.90;49.00
38333;DHT22;25748;46.670;14.272;2024-01-27T11:45:22;12.10;48.90
38333;DHT22;25748;46.670;14.272;2024-01-27T11:47:47;12.10;47.60
38333;DHT22;25748;46.670;14.272;2024-01-27T11:50:13;12.30;47.00
38333;DHT22;25748;46.670;14.272;2024-01-27T11:52:39;12.30;47.00
38333;DHT22;25748;46.670;14.272;2024-01-27T11:55:04;12.40;46.70
38333;DHT22;25748;46.670;14.272;2024-01-27T11:57:30;12.50;43.90
38333;DHT22;25748;46.670;14.272;2024-01-27T11:59:56;12.50;45.30
38333;DHT22;25748;46.670;14.272;2024-01-27T12:02:22;12.60;43.80
38333;DHT22;25748;46.670;14.272;2024-01-27T12:04:48;12.70;43.30
38333;DHT22;25748;46.670;14.272;2024-01-27T12:07:15;12.70;42.00
38333;DHT22;25748;46.670;14.272;2024-01-27T12:09:41;12.80;42.30
38333;DHT22;25748;46.670;14.272;2024-01-27T12:12:08;12.80;43.30
38333;DHT22;25748;46.670;14.272;2024-01-27T12:14:41;12.80;42.10
38333;DHT22;25748;46.670;14.272;2024-01-27T12:17:10;12.90;42.10
38333;DHT22;25748;46.670;14.272;2024-01-27T12:19:45;12.90;42.00
38333;DHT22;25748;46.670;14.272;2024-01-27T12:22:27;13.00;41.60
38333;DHT22;25748;46.670;14.272;2024-01-27T12:24:54;13.10;41.60
38333;DHT22;25748;46.670;14.272;2024-01-27T12:27:21;13.10;41.10
38333;DHT22;25748;46.670;14.272;2024-01-27T12:29:48;13.20;39.30
38333;DHT22;25748;46.670;14.272;2024-01-27T12:32:15;13.30;38.30
38333;DHT22;25748;46.670;14.272;2024-01-27T12:34:42;13.30;37.50
38333;DHT22;25748;46.670;14.272;2024-01-27T12:37:10;13.40;38.10
38333;DHT22;25748;46.670;14.272;2024-01-27T12:39:36;13.40;37.50
38333;DHT22;25748;46.670;14.272;2024-01-27T12:42:01;13.50;36.20
38333;DHT22;25748;46.670;14.272;2024-01-27T12:44:27;13.60;34.20
38333;DHT22;25748;46.670;14.272;2024-01-27T12:46:53;13.60;33.90
38333;DHT22;25748;46.670;14.272;2024-01-27T12:49:19;13.70;34.60
38333;DHT22;25748;46.670;14.272;2024-01-27T12:51:46;13.70;34.30
38333;DHT22;25748;46.670;14.272;2024-01-27T12:54:14;13.70;33.80
38333;DHT22;25748;46.670;14.272;2024-01-27T12:56:40;13.70;34.00
38333;DHT22;25748;46.670;14.272;2024-01-27T12:59:06;13.80;34.00
38333;DHT22;25748;46.670;14.272;2024-01-27T13:01:33;13.80;33.60
38333;DHT22;25748;46.670;14.272;2024-01-27T13:03:59;13.80;33.30
38333;DHT22;25748;46.670;14.272;2024-01-27T13:06:26;13.90;33.20
38333;DHT22;25748;46.670;14.272;2024-01-27T13:08:51;13.90;32.80
38333;DHT22;25748;46.670;14.272;2024-01-27T13:11:17;13.90;32.80
38333;DHT22;25748;46.670;14.272;2024-01-27T13:13:43;13.90;32.50
38333;DHT22;25748;46.670;14.272;2024-01-27T13:16:09;13.90;32.50
38333;DHT22;25748;46.670;14.272;2024-01-27T13:18:36;13.90;33.20
38333;DHT22;25748;46.670;14.272;2024-01-27T13:21:01;14.00;32.70
38333;DHT22;25748;46.670;14.272;2024-01-27T13:23:29;14.00;32.90
38333;DHT22;25748;46.670;14.272;2024-01-27T13:25:54;14.10;33.10
38333;DHT22;25748;46.670;14.272;2024-01-27T13:28:20;14.20;32.70
38333;DHT22;25748;46.670;14.272;2024-01-27T13:30:45;14.20;33.10
38333;DHT22;25748;46.670;14.272;2024-01-27T13:33:11;14.00;31.80
38333;DHT22;25748;46.670;14.272;2024-01-27T13:35:38;13.90;32.40
38333;DHT22;25748;46.670;14.272;2024-01-27T13:38:05;13.90;32.00
38333;DHT22;25748;46.670;14.272;2024-01-27T13:40:31;14.00;32.30
38333;DHT22;25748;46.670;14.272;2024-01-27T13:42:57;13.90;31.70
38333;DHT22;25748;46.670;14.272;2024-01-27T13:45:23;13.90;31.90
38333;DHT22;25748;46.670;14.272;2024-01-27T13:47:49;13.90;31.90
38333;DHT22;25748;46.670;14.272;2024-01-27T13:50:14;14.00;31.80
38333;DHT22;25748;46.670;14.272;2024-01-27T13:52:40;14.00;31.70
38333;DHT22;25748;46.670;14.272;2024-01-27T13:55:09;14.00;31.70
38333;DHT22;25748;46.670;14.272;2024-01-27T13:57:35;14.00;32.10
38333;DHT22;25748;46.670;14.272;2024-01-27T14:00:01;14.00;31.90
38333;DHT22;25748;46.670;14.272;2024-01-27T14:02:27;14.00;32.10
38333;DHT22;25748;46.670;14.272;2024-01-27T14:04:53;14.10;32.00
38333;DHT22;25748;46.670;14.272;2024-01-27T14:07:18;14.00;31.50
38333;DHT22;25748;46.670;14.272;2024-01-27T14:09:44;14.00;31.60
38333;DHT22;25748;46.670;14.272;2024-01-27T14:12:10;14.00;32.10
38333;DHT22;25748;46.670;14.272;2024-01-27T14:14:36;14.00;32.10
38333;DHT22;25748;46.670;14.272;2024-01-27T14:17:04;13.90;31.70
38333;DHT22;25748;46.670;14.272;2024-01-27T14:19:30;13.80;31.70
38333;DHT22;25748;46.670;14.272;2024-01-27T14:21:57;13.70;31.20
38333;DHT22;25748;46.670;14.272;2024-01-27T14:24:23;13.60;30.70
38333;DHT22;25748;46.670;14.272;2024-01-27T14:26:49;13.40;31.00
38333;DHT22;25748;46.670;14.272;2024-01-27T14:29:15;13.30;31.20
38333;DHT22;25748;46.670;14.272;2024-01-27T14:31:42;13.30;31.50
38333;DHT22;25748;46.670;14.272;2024-01-27T14:34:08;13.20;31.60
38333;DHT22;25748;46.670;14.272;2024-01-27T14:36:35;13.20;31.60
38333;DHT22;25748;46.670;14.272;2024-01-27T14:39:01;13.10;31.20
38333;DHT22;25748;46.670;14.272;2024-01-27T14:41:30;13.00;31.30
38333;DHT22;25748;46.670;14.272;2024-01-27T14:43:56;13.00;31.00
38333;DHT22;25748;46.670;14.272;2024-01-27T14:46:22;12.90;31.40
38333;DHT22;25748;46.670;14.272;2024-01-27T14:48:48;12.90;31.80
38333;DHT22;25748;46.670;14.272;2024-01-27T14:51:14;12.90;31.50
38333;DHT22;25748;46.670;14.272;2024-01-27T14:53:40;12.70;31.90
38333;DHT22;25748;46.670;14.272;2024-01-27T14:56:06;12.70;31.60
38333;DHT22;25748;46.670;14.272;2024-01-27T14:58:32;12.60;31.40
38333;DHT22;25748;46.670;14.272;2024-01-27T15:00:57;12.50;30.90
38333;DHT22;25748;46.670;14.272;2024-01-27T15:03:23;12.50;31.70
38333;DHT22;25748;46.670;14.272;2024-01-27T15:05:50;12.40;31.40
38333;DHT22;25748;46.670;14.272;2024-01-27T15:08:20;12.30;31.40
38333;DHT22;25748;46.670;14.272;2024-01-27T15:10:46;12.20;32.00
38333;DHT22;25748;46.670;14.272;2024-01-27T15:13:13;12.10;32.00
38333;DHT22;25748;46.670;14.272;2024-01-27T15:15:39;12.10;32.00